createdAt,value
2019-05-11T00:00:56.826Z,31.10
2019-05-11T00:01:56.738Z,32.20
2019-05-11T00:02:56.839Z,31.50
2019-05-11T00:03:56.699Z,31.10
2019-05-11T00:04:56.748Z,32.10
2019-05-11T00:05:56.636Z,31.30
2019-05-11T00:06:56.660Z,31.40
2019-05-11T00:07:56.585Z,31.90
2019-05-11T00:08:56.673Z,32.60
2019-05-11T00:09:58.409Z,31.10
2019-05-11T00:10:56.575Z,31.20
2019-05-11T00:11:56.492Z,31.20
2019-05-11T00:12:56.498Z,31.10
2019-05-11T00:13:56.438Z,31.80
2019-05-11T00:14:56.499Z,32.00
2019-05-11T00:15:56.390Z,32.50
2019-05-11T00:16:56.349Z,32.60
2019-05-11T00:17:56.325Z,34.00
2019-05-11T00:18:56.317Z,32.60
2019-05-11T00:19:56.283Z,31.50
2019-05-11T00:20:56.326Z,32.20
2019-05-11T00:21:56.251Z,33.70
2019-05-11T00:22:56.202Z,32.00
2019-05-11T00:23:56.245Z,32.70
2019-05-11T00:24:56.149Z,33.60
2019-05-11T00:25:56.158Z,33.10
2019-05-11T00:26:56.098Z,33.10
2019-05-11T00:27:56.077Z,32.40
2019-05-11T00:28:56.076Z,34.40
2019-05-11T00:29:56.008Z,33.50
2019-05-11T00:30:56.089Z,33.60
2019-05-11T00:31:56.032Z,34.70
2019-05-11T00:32:55.942Z,35.20
2019-05-11T00:33:55.908Z,34.40
2019-05-11T00:34:55.915Z,34.10
2019-05-11T00:35:55.859Z,34.80
2019-05-11T00:36:55.917Z,35.00
2019-05-11T00:37:55.824Z,35.40
2019-05-11T00:38:55.787Z,35.00
2019-05-11T00:39:55.839Z,34.60
2019-05-11T00:40:55.732Z,33.40
2019-05-11T00:41:55.748Z,34.50
2019-05-11T00:42:55.680Z,33.40
2019-05-11T00:43:55.765Z,34.80
2019-05-11T00:44:55.627Z,33.90
2019-05-11T00:45:55.669Z,34.70
2019-05-11T00:46:55.580Z,35.10
2019-05-11T00:47:55.578Z,35.30
2019-05-11T00:48:55.586Z,36.40
2019-05-11T00:49:55.499Z,36.30
2019-05-11T00:50:55.497Z,35.80
2019-05-11T00:51:55.447Z,36.00
2019-05-11T00:52:55.513Z,36.80
2019-05-11T00:53:55.406Z,36.10
2019-05-11T00:54:55.358Z,36.70
2019-05-11T00:55:55.429Z,37.30
2019-05-11T00:56:55.319Z,36.20
2019-05-11T00:57:55.335Z,36.90
2019-05-11T00:58:55.278Z,37.80
2019-05-11T00:59:55.274Z,36.50
2019-05-11T01:00:55.207Z,38.40
2019-05-11T01:01:55.257Z,37.80
2019-05-11T01:02:55.147Z,38.90
2019-05-11T01:03:55.167Z,38.10
2019-05-11T01:04:55.129Z,37.80
2019-05-11T01:05:55.224Z,37.10
2019-05-11T01:06:55.098Z,37.30
2019-05-11T01:07:55.100Z,38.60
2019-05-11T01:08:55.008Z,40.10
2019-05-11T01:09:54.967Z,37.70
2019-05-11T01:10:54.949Z,39.00
2019-05-11T01:11:55.018Z,39.70
2019-05-11T01:12:54.898Z,39.40
2019-05-11T01:13:54.917Z,37.80
2019-05-11T01:14:54.928Z,38.00
2019-05-11T01:15:54.816Z,39.10
2019-05-11T01:16:54.875Z,37.40
2019-05-11T01:18:09.607Z,38.30
2019-05-11T01:18:54.746Z,38.50
2019-05-11T01:19:54.719Z,36.90
2019-05-11T01:20:54.745Z,38.40
2019-05-11T01:21:54.768Z,36.70
2019-05-11T01:22:54.637Z,36.30
2019-05-11T01:23:54.679Z,37.50
2019-05-11T01:24:54.577Z,37.20
2019-05-11T01:25:54.547Z,36.60
2019-05-11T01:26:54.527Z,37.60
2019-05-11T01:27:54.597Z,37.10
2019-05-11T01:28:54.465Z,38.00
2019-05-11T01:29:54.506Z,36.60
2019-05-11T01:30:54.517Z,37.10
2019-05-11T01:31:54.398Z,38.40
2019-05-11T01:32:54.431Z,38.70
2019-05-11T01:33:54.337Z,37.30
2019-05-11T01:34:54.336Z,37.80
2019-05-11T01:35:54.300Z,37.60
2019-05-11T01:36:54.359Z,37.90
2019-05-11T01:37:54.238Z,37.80
2019-05-11T01:38:54.268Z,37.90
2019-05-11T01:39:54.196Z,38.60
2019-05-11T01:40:58.766Z,39.10
2019-05-11T01:41:54.180Z,38.80
2019-05-11T01:42:54.106Z,38.80
2019-05-11T01:43:54.188Z,40.00
2019-05-11T01:44:54.059Z,38.90
2019-05-11T01:45:54.142Z,40.40
2019-05-11T01:46:54.107Z,39.00
2019-05-11T01:47:53.977Z,37.60
2019-05-11T01:48:54.017Z,37.50
2019-05-11T01:49:53.927Z,38.50
2019-05-11T01:50:53.932Z,38.20
2019-05-11T01:51:53.878Z,39.30
2019-05-11T01:52:53.940Z,39.50
2019-05-11T01:53:53.828Z,40.40
2019-05-11T01:54:53.846Z,39.10
2019-05-11T01:55:53.769Z,39.50
2019-05-11T01:56:53.760Z,38.70
2019-05-11T01:57:53.730Z,36.30
2019-05-11T01:58:53.775Z,37.40
2019-05-11T01:59:53.738Z,37.30
2019-05-11T02:00:53.688Z,36.90
2019-05-11T02:01:53.607Z,37.50
2019-05-11T02:02:53.588Z,37.50
2019-05-11T02:03:53.567Z,36.60
2019-05-11T02:04:53.605Z,37.20
2019-05-11T02:05:53.507Z,38.20
2019-05-11T02:06:53.518Z,39.30
2019-05-11T02:07:53.468Z,39.60
2019-05-11T02:08:53.528Z,39.10
2019-05-11T02:09:53.397Z,38.20
2019-05-11T02:10:53.447Z,38.60
2019-05-11T02:11:53.360Z,40.20
2019-05-11T02:12:53.362Z,38.50
2019-05-11T02:13:53.308Z,39.30
2019-05-11T02:14:53.369Z,40.20
2019-05-11T02:15:53.248Z,40.60
2019-05-11T02:16:53.278Z,40.30
2019-05-11T02:17:53.197Z,38.70
2019-05-11T02:18:53.168Z,38.10
2019-05-11T02:19:53.149Z,38.40
2019-05-11T02:20:53.197Z,41.20
2019-05-11T02:21:53.108Z,40.00
2019-05-11T02:22:53.157Z,39.20
2019-05-11T02:23:53.107Z,40.50
2019-05-11T02:24:53.018Z,40.50
2019-05-11T02:25:53.030Z,41.70
2019-05-11T02:26:52.969Z,42.00
2019-05-11T02:27:53.027Z,42.40
2019-05-11T02:28:52.914Z,41.40
2019-05-11T02:29:52.941Z,40.00
2019-05-11T02:30:52.862Z,40.40
2019-05-11T02:31:52.848Z,41.80
2019-05-11T02:32:52.810Z,41.30
2019-05-11T02:33:52.873Z,42.80
2019-05-11T02:34:52.751Z,41.80
2019-05-11T02:35:52.785Z,42.70
2019-05-11T02:36:52.699Z,41.90
2019-05-11T02:37:52.791Z,43.90
2019-05-11T02:38:52.639Z,42.80
2019-05-11T02:39:52.617Z,43.50
2019-05-11T02:40:52.599Z,43.00
2019-05-11T02:41:52.607Z,45.20
2019-05-11T02:42:52.539Z,43.70
2019-05-11T02:43:52.628Z,43.70
2019-05-11T02:44:52.489Z,43.80
2019-05-11T02:45:52.537Z,44.00
2019-05-11T02:46:52.438Z,42.30
2019-05-11T02:47:52.447Z,42.30
2019-05-11T02:48:52.378Z,44.00
2019-05-11T02:49:52.458Z,42.50
2019-05-11T02:50:52.334Z,42.10
2019-05-11T02:51:52.369Z,41.80
2019-05-11T02:52:52.278Z,43.90
2019-05-11T02:53:52.279Z,42.40
2019-05-11T02:54:52.229Z,44.20
2019-05-11T02:55:52.209Z,42.80
2019-05-11T02:56:52.168Z,41.50
2019-05-11T02:57:52.198Z,41.40
2019-05-11T02:58:52.135Z,40.80
2019-05-11T02:59:52.108Z,39.30
2019-05-11T03:00:52.067Z,40.30
2019-05-11T03:01:52.116Z,40.10
2019-05-11T03:02:52.029Z,39.10
2019-05-11T03:03:52.030Z,40.00
2019-05-11T03:04:51.980Z,40.70
2019-05-11T03:05:52.045Z,42.10
2019-05-11T03:06:51.914Z,41.30
2019-05-11T03:07:51.951Z,43.10
2019-05-11T03:08:51.870Z,43.20
2019-05-11T03:09:51.858Z,43.20
2019-05-11T03:10:51.808Z,43.10
2019-05-11T03:11:55.670Z,42.90
2019-05-11T03:12:51.781Z,44.70
2019-05-11T03:13:51.730Z,44.20
2019-05-11T03:14:51.788Z,42.90
2019-05-11T03:15:51.678Z,44.40
2019-05-11T03:16:51.660Z,41.60
2019-05-11T03:17:51.618Z,43.30
2019-05-11T03:18:51.724Z,43.90
2019-05-11T03:19:51.571Z,43.10
2019-05-11T03:20:51.629Z,43.10
2019-05-11T03:21:51.517Z,43.30
2019-05-11T03:22:51.541Z,44.00
2019-05-11T03:23:51.471Z,45.00
2019-05-11T03:24:51.548Z,44.70
2019-05-11T03:25:51.417Z,42.80
2019-05-11T03:26:51.461Z,44.10
2019-05-11T03:27:51.470Z,43.90
2019-05-11T03:28:51.338Z,45.40
2019-05-11T03:29:51.388Z,44.90
2019-05-11T03:30:51.310Z,44.70
2019-05-11T03:31:51.289Z,44.10
2019-05-11T03:32:51.292Z,44.50
2019-05-11T03:33:51.213Z,44.50
2019-05-11T03:34:51.209Z,44.90
2019-05-11T03:35:51.149Z,44.60
2019-05-11T03:36:51.219Z,44.00
2019-05-11T03:37:51.108Z,42.60
2019-05-11T03:38:51.129Z,45.70
2019-05-11T03:39:51.050Z,43.80
2019-05-11T03:40:51.042Z,43.60
2019-05-11T03:41:50.996Z,45.00
2019-05-11T03:42:51.051Z,44.80
2019-05-11T03:43:50.949Z,43.50
2019-05-11T03:44:50.963Z,45.00
2019-05-11T03:45:50.889Z,44.20
2019-05-11T03:46:50.980Z,42.70
2019-05-11T03:47:50.850Z,42.30
2019-05-11T03:48:50.821Z,44.90
2019-05-11T03:49:50.789Z,45.20
2019-05-11T03:50:50.789Z,44.50
2019-05-11T03:51:50.728Z,45.30
2019-05-11T03:52:50.890Z,44.30
2019-05-11T03:53:50.689Z,44.00
2019-05-11T03:54:50.754Z,44.90
2019-05-11T03:55:50.640Z,44.90
2019-05-11T03:56:50.628Z,46.30
2019-05-11T03:57:50.568Z,45.00
2019-05-11T03:58:50.655Z,42.90
2019-05-11T03:59:50.533Z,44.50
2019-05-11T04:00:50.552Z,42.60
2019-05-11T04:01:50.470Z,43.70
2019-05-11T04:02:50.462Z,44.10
2019-05-11T04:03:50.419Z,42.80
2019-05-11T04:04:50.400Z,43.40
2019-05-11T04:05:50.515Z,43.10
2019-05-11T04:06:50.338Z,44.60
2019-05-11T04:07:50.409Z,44.00
2019-05-11T04:08:50.286Z,44.60
2019-05-11T04:09:50.260Z,45.80
2019-05-11T04:10:50.236Z,44.90
2019-05-11T04:11:50.309Z,44.70
2019-05-11T04:12:50.176Z,44.30
2019-05-11T04:13:50.219Z,44.60
2019-05-11T04:14:50.210Z,44.20
2019-05-11T04:15:50.099Z,44.70
2019-05-11T04:16:50.148Z,45.50
2019-05-11T04:17:50.050Z,44.70
2019-05-11T04:18:50.048Z,44.50
2019-05-11T04:19:49.999Z,44.10
2019-05-11T04:20:49.976Z,45.40
2019-05-11T04:21:49.969Z,44.00
2019-05-11T04:22:49.925Z,43.90
2019-05-11T04:23:49.979Z,43.60
2019-05-11T04:24:49.866Z,43.50
2019-05-11T04:25:49.838Z,42.70
2019-05-11T04:26:49.807Z,42.10
2019-05-11T04:27:49.810Z,41.10
2019-05-11T04:28:49.758Z,41.80
2019-05-11T04:29:49.813Z,41.30
2019-05-11T04:30:49.718Z,41.10
2019-05-11T04:31:49.727Z,42.20
2019-05-11T04:32:49.647Z,41.50
2019-05-11T04:33:49.727Z,42.90
2019-05-11T04:34:49.601Z,42.60
2019-05-11T04:35:49.676Z,41.80
2019-05-11T04:42:21.181Z,44.20
2019-05-11T04:43:21.118Z,42.80
2019-05-11T04:45:25.189Z,42.40
2019-05-11T04:46:25.076Z,43.40
2019-05-11T04:48:29.026Z,44.40
2019-05-11T04:49:29.047Z,44.50
2019-05-11T04:51:33.087Z,44.00
2019-05-11T04:52:33.057Z,44.30
2019-05-11T04:54:36.999Z,44.30
2019-05-11T04:55:36.915Z,44.00
2019-05-11T04:57:40.956Z,43.70
2019-05-11T04:58:40.917Z,45.00
2019-05-11T05:00:33.857Z,44.20
2019-05-11T05:01:33.766Z,44.00
2019-05-11T05:03:41.179Z,44.90
2019-05-11T05:04:37.791Z,43.70
2019-05-11T05:06:41.886Z,43.40
2019-05-11T05:07:48.166Z,45.20
2019-05-11T05:09:45.915Z,45.40
2019-05-11T05:10:45.877Z,44.70
2019-05-11T05:12:51.493Z,45.10
2019-05-11T05:13:53.108Z,45.80
2019-05-11T05:15:53.929Z,46.30
2019-05-11T05:16:53.836Z,47.00
2019-05-11T05:18:59.320Z,46.50
2019-05-11T05:19:59.275Z,46.40
2019-05-11T05:22:03.345Z,45.70
2019-05-11T05:23:03.433Z,47.30
2019-05-11T05:25:07.398Z,47.30
2019-05-11T05:26:07.309Z,49.60
2019-05-11T05:28:11.421Z,47.50
2019-05-11T05:29:11.318Z,49.30
2019-05-11T05:31:15.367Z,48.70
2019-05-11T05:32:15.399Z,48.70
2019-05-11T05:34:19.331Z,48.50
2019-05-11T05:35:19.296Z,48.70
2019-05-11T05:37:23.338Z,48.80
2019-05-11T05:38:23.247Z,49.20
2019-05-11T05:40:17.116Z,48.70
2019-05-11T05:41:17.017Z,48.00
2019-05-11T05:43:27.074Z,48.10
2019-05-11T05:44:21.932Z,50.00
2019-05-11T05:46:25.956Z,47.80
2019-05-11T05:47:25.878Z,48.80
2019-05-11T05:49:29.962Z,49.60
2019-05-11T05:50:29.872Z,48.70
2019-05-11T05:52:34.798Z,49.30
2019-05-11T05:53:34.710Z,48.90
2019-05-11T05:55:39.635Z,48.70
2019-05-11T05:56:39.592Z,50.30
2019-05-11T05:58:43.548Z,49.80
2019-05-11T05:59:43.457Z,50.90
2019-05-11T06:01:48.328Z,51.20
2019-05-11T06:02:48.277Z,50.20
2019-05-11T06:04:52.300Z,51.20
2019-05-11T06:05:52.198Z,52.60
2019-05-11T06:07:56.308Z,50.40
2019-05-11T06:08:56.213Z,52.30
2019-05-11T06:10:49.357Z,51.70
2019-05-11T06:13:44.658Z,54.10
2019-05-11T06:14:29.816Z,54.80
2019-05-11T06:16:33.982Z,56.90
2019-05-11T06:17:34.657Z,54.10
2019-05-11T06:19:37.908Z,54.50
2019-05-11T06:20:37.713Z,55.40
2019-05-11T06:22:42.044Z,56.80
2019-05-11T06:23:41.718Z,55.80
2019-05-11T06:25:45.767Z,55.70
2019-05-11T06:26:45.912Z,56.10
2019-05-11T06:28:49.877Z,58.40
2019-05-11T06:29:49.747Z,57.00
2019-05-11T06:31:53.968Z,57.00
2019-05-11T06:32:53.774Z,57.90
2019-05-11T06:34:58.001Z,60.10
2019-05-11T06:35:57.778Z,59.20
2019-05-11T06:38:02.008Z,58.10
2019-05-11T06:39:01.799Z,56.30
2019-05-11T06:41:06.007Z,57.30
2019-05-11T06:42:05.806Z,55.60
2019-05-11T06:44:09.868Z,54.90
2019-05-11T06:45:09.817Z,54.40
2019-05-11T06:47:14.037Z,53.80
2019-05-11T06:48:13.848Z,54.20
2019-05-11T06:50:07.010Z,53.50
2019-05-11T06:51:10.961Z,52.20
2019-05-11T06:53:11.517Z,54.70
2019-05-11T06:54:11.306Z,54.10
2019-05-11T06:56:16.436Z,52.40
2019-05-11T06:57:16.159Z,53.80
2019-05-11T06:59:20.216Z,56.30
2019-05-11T07:00:20.202Z,54.70
2019-05-11T07:02:24.543Z,54.60
2019-05-11T07:03:24.247Z,57.10
2019-05-11T07:05:29.969Z,57.00
2019-05-11T07:06:30.886Z,55.70
2019-05-11T07:08:34.089Z,57.00
2019-05-11T07:09:33.765Z,58.00
2019-05-11T07:11:38.081Z,57.10
2019-05-11T07:12:37.906Z,58.30
2019-05-11T07:16:40.944Z,57.60
2019-05-11T07:24:47.239Z,61.70
2019-05-11T07:25:00.320Z,63.10
2019-05-11T07:28:49.460Z,62.70
2019-05-11T07:29:48.374Z,61.70
2019-05-11T07:31:52.584Z,62.60
2019-05-11T07:32:52.283Z,64.50
2019-05-11T07:34:57.729Z,63.60
2019-05-11T07:35:58.312Z,66.30
2019-05-11T07:38:00.348Z,65.10
2019-05-11T07:39:00.203Z,65.80
2019-05-11T07:41:04.240Z,67.80
2019-05-11T07:42:04.147Z,66.50
2019-05-11T07:44:10.048Z,66.20
2019-05-11T07:45:08.918Z,66.90
2019-05-11T07:47:11.969Z,64.80
2019-05-11T07:48:12.055Z,68.30
2019-05-11T07:50:04.978Z,65.40
2019-05-11T07:51:04.823Z,66.90
2019-05-11T07:53:08.835Z,66.70
2019-05-11T07:54:08.722Z,68.10
2019-05-11T07:56:12.745Z,65.90
2019-05-11T07:57:12.619Z,65.00
2019-05-11T07:59:18.384Z,64.20
2019-05-11T08:00:18.623Z,64.10
2019-05-11T08:02:20.533Z,63.00
2019-05-11T08:03:20.423Z,60.20
2019-05-11T08:05:24.486Z,59.90
2019-05-11T08:06:24.333Z,59.40
2019-05-11T08:08:28.491Z,58.30
2019-05-11T08:09:28.256Z,59.80
2019-05-11T08:10:28.351Z,59.90
2019-05-11T08:11:31.368Z,58.50
2019-05-11T08:12:28.667Z,58.00
2019-05-11T08:13:28.412Z,56.60
2019-05-11T08:14:28.895Z,56.10
2019-05-11T08:15:28.464Z,56.20
2019-05-11T08:16:28.729Z,56.90
2019-05-11T08:17:28.596Z,56.10
2019-05-11T08:18:28.403Z,57.60
2019-05-11T08:19:28.409Z,54.80
2019-05-11T08:20:28.260Z,52.20
2019-05-11T08:21:28.536Z,50.60
2019-05-11T08:22:28.530Z,51.80
2019-05-11T08:23:28.640Z,51.30
2019-05-11T08:24:28.551Z,49.70
2019-05-11T08:25:28.703Z,49.80
2019-05-11T08:26:28.388Z,49.10
2019-05-11T08:27:28.580Z,48.50
2019-05-11T08:28:28.802Z,48.40
2019-05-11T08:29:28.062Z,47.40
2019-05-11T08:30:27.911Z,43.90
2019-05-11T08:31:28.091Z,46.60
2019-05-11T08:32:28.715Z,45.10
2019-05-11T08:33:28.410Z,44.50
2019-05-11T08:34:28.604Z,42.20
2019-05-11T08:35:31.140Z,42.20
2019-05-11T08:36:28.912Z,41.90
2019-05-11T08:37:28.374Z,40.10
2019-05-11T08:38:28.526Z,38.80
2019-05-11T08:39:28.835Z,39.70
2019-05-11T08:40:28.838Z,38.30
2019-05-11T08:41:28.119Z,38.60
2019-05-11T08:42:28.879Z,39.00
2019-05-11T08:43:28.489Z,37.70
2019-05-11T08:44:28.713Z,38.20
2019-05-11T08:45:28.096Z,37.50
2019-05-11T08:46:28.071Z,37.30
2019-05-11T08:47:28.323Z,36.30
2019-05-11T08:48:28.287Z,35.80
2019-05-11T08:49:28.747Z,35.70
2019-05-11T08:50:27.972Z,37.80
2019-05-11T08:51:28.120Z,37.50
2019-05-11T08:52:28.042Z,35.90
2019-05-11T08:53:28.418Z,37.60
2019-05-11T08:54:28.838Z,36.70
2019-05-11T08:55:28.965Z,37.30
2019-05-11T08:56:28.878Z,37.70
2019-05-11T08:57:28.561Z,38.30
2019-05-11T08:58:27.800Z,36.30
2019-05-11T08:59:27.838Z,35.60
2019-05-11T09:00:28.348Z,35.30
2019-05-11T09:01:28.656Z,33.30
2019-05-11T09:02:27.796Z,35.70
2019-05-11T09:03:28.436Z,35.70
2019-05-11T09:04:28.852Z,35.40
2019-05-11T09:05:28.048Z,36.10
2019-05-11T09:06:28.404Z,36.30
2019-05-11T09:07:27.830Z,37.70
2019-05-11T09:08:28.228Z,37.60
2019-05-11T09:09:28.618Z,39.90
2019-05-11T09:10:28.137Z,36.70
2019-05-11T09:11:28.388Z,37.50
2019-05-11T09:12:28.790Z,37.50
2019-05-11T09:13:27.882Z,37.30
2019-05-11T09:14:28.325Z,36.80
2019-05-11T09:15:36.394Z,35.80
2019-05-11T09:16:28.917Z,34.70
2019-05-11T09:17:28.695Z,34.70
2019-05-11T09:18:27.976Z,33.50
2019-05-11T09:19:28.520Z,33.90
2019-05-11T09:20:28.506Z,33.80
2019-05-11T09:21:33.593Z,32.20
2019-05-11T09:22:28.287Z,31.60
2019-05-11T09:23:34.560Z,30.90
2019-05-11T09:24:28.201Z,31.50
2019-05-11T09:25:27.754Z,31.90
2019-05-11T09:26:28.458Z,31.20
2019-05-11T09:27:28.454Z,29.00
2019-05-11T09:28:26.407Z,27.60
2019-05-11T09:29:28.154Z,26.60
2019-05-11T09:30:28.639Z,26.30
2019-05-11T09:31:27.942Z,26.20
2019-05-11T09:32:28.346Z,27.20
2019-05-11T09:33:28.180Z,25.50
2019-05-11T09:34:28.611Z,25.60
2019-05-11T09:35:26.306Z,26.00
2019-05-11T09:36:28.324Z,25.80
2019-05-11T09:37:27.746Z,26.90
2019-05-11T09:38:27.730Z,25.40
2019-05-11T09:39:28.043Z,25.10
2019-05-11T09:40:28.228Z,23.90
2019-05-11T09:41:26.099Z,24.00
2019-05-11T09:42:28.413Z,25.20
2019-05-11T09:43:28.192Z,24.40
2019-05-11T09:44:25.992Z,25.20
2019-05-11T09:45:27.811Z,24.20
2019-05-11T09:46:27.885Z,23.50
2019-05-11T09:47:27.967Z,23.30
2019-05-11T09:48:28.238Z,23.50
2019-05-11T09:49:43.271Z,23.30
2019-05-11T09:50:27.735Z,24.30
2019-05-11T09:51:25.920Z,23.30
2019-05-11T09:52:27.587Z,22.10
2019-05-11T09:53:28.167Z,22.00
2019-05-11T09:54:25.760Z,21.00
2019-05-11T09:55:28.101Z,21.60
2019-05-11T09:56:25.777Z,21.80
2019-05-11T09:57:27.619Z,21.30
2019-05-11T09:58:27.922Z,20.80
2019-05-11T09:59:28.122Z,21.30
2019-05-11T10:00:28.094Z,21.90
2019-05-11T10:01:25.630Z,21.00
2019-05-11T10:02:27.411Z,22.30
2019-05-11T10:03:27.988Z,21.90
2019-05-11T10:04:25.648Z,22.40
2019-05-11T10:05:25.510Z,21.90
2019-05-11T10:06:28.050Z,22.20
2019-05-11T10:07:25.459Z,21.70
2019-05-11T10:08:25.414Z,23.00
2019-05-11T10:09:27.789Z,23.70
2019-05-11T10:10:25.498Z,23.70
2019-05-11T10:11:25.377Z,23.70
2019-05-11T10:12:25.410Z,24.20
2019-05-11T10:13:27.685Z,23.70
2019-05-11T10:14:25.425Z,24.80
2019-05-11T10:15:25.276Z,24.60
2019-05-11T10:16:25.365Z,25.60
2019-05-11T10:17:25.247Z,24.40
2019-05-11T10:18:25.214Z,25.90
2019-05-11T10:19:25.251Z,26.50
2019-05-11T10:20:25.166Z,25.10
2019-05-11T10:21:25.269Z,24.40
2019-05-11T10:22:25.127Z,24.00
2019-05-11T10:23:25.107Z,22.80
2019-05-11T10:24:25.081Z,22.10
2019-05-11T10:25:25.178Z,22.10
2019-05-11T10:26:25.038Z,22.30
2019-05-11T10:27:25.103Z,21.30
2019-05-11T10:28:24.986Z,22.10
2019-05-11T10:29:25.007Z,20.30
2019-05-11T10:30:24.945Z,21.60
2019-05-11T10:31:25.017Z,20.50
2019-05-11T10:32:24.907Z,20.00
2019-05-11T10:33:24.888Z,20.30
2019-05-11T10:34:24.867Z,20.80
2019-05-11T10:35:24.948Z,19.50
2019-05-11T10:36:24.824Z,19.50
2019-05-11T10:37:24.888Z,18.90
2019-05-11T10:38:24.812Z,20.10
2019-05-11T10:39:24.783Z,20.30
2019-05-11T10:40:24.730Z,19.50
2019-05-11T10:41:24.779Z,19.70
2019-05-11T10:42:24.707Z,18.90
2019-05-11T10:43:24.698Z,19.20
2019-05-11T10:44:24.637Z,18.90
2019-05-11T10:45:24.707Z,18.40
2019-05-11T10:46:24.595Z,17.90
2019-05-11T10:47:24.619Z,17.40
2019-05-11T10:48:24.566Z,18.60
2019-05-11T10:49:24.537Z,20.30
2019-05-11T10:50:24.518Z,17.50
2019-05-11T10:51:24.546Z,16.20
2019-05-11T10:52:24.466Z,15.40
2019-05-11T10:53:24.556Z,19.20
2019-05-11T10:54:24.484Z,15.20
2019-05-11T10:55:24.418Z,15.40
2019-05-11T10:56:24.485Z,16.00
2019-05-11T10:57:24.366Z,15.00
2019-05-11T10:58:24.387Z,14.40
2019-05-11T10:59:24.316Z,13.70
2019-05-11T11:00:24.408Z,13.60
2019-05-11T11:01:24.289Z,13.20
2019-05-11T11:02:24.322Z,12.70
2019-05-11T11:03:24.243Z,12.50
2019-05-11T11:04:24.335Z,13.20
2019-05-11T11:05:24.214Z,13.10
2019-05-11T11:06:24.237Z,14.10
2019-05-11T11:07:24.158Z,15.80
2019-05-11T11:08:24.172Z,15.80
2019-05-11T11:09:24.107Z,15.60
2019-05-11T11:10:24.086Z,15.00
2019-05-11T11:11:24.070Z,14.30
2019-05-11T11:12:24.076Z,16.40
2019-05-11T11:13:24.027Z,16.80
2019-05-11T11:14:24.100Z,14.60
2019-05-11T11:15:24.000Z,15.20
2019-05-11T11:16:35.840Z,14.20
2019-05-11T11:17:23.948Z,13.80
2019-05-11T11:18:24.016Z,13.30
2019-05-11T11:19:23.907Z,12.90
2019-05-11T11:20:23.927Z,13.00
2019-05-11T11:21:23.888Z,12.90
2019-05-11T11:22:37.055Z,12.60
2019-05-11T11:23:23.840Z,12.70
2019-05-11T11:24:23.889Z,13.00
2019-05-11T11:25:23.777Z,14.50
2019-05-11T11:26:23.758Z,12.70
2019-05-11T11:27:23.739Z,12.50
2019-05-11T11:28:23.779Z,13.30
2019-05-11T11:29:23.688Z,12.10
2019-05-11T11:30:23.710Z,12.40
2019-05-11T11:31:23.697Z,12.20
2019-05-11T11:32:23.633Z,11.60
2019-05-11T11:33:23.719Z,11.20
2019-05-11T11:34:23.587Z,11.40
2019-05-11T11:35:23.628Z,12.90
2019-05-11T11:36:23.538Z,11.60
2019-05-11T11:37:23.538Z,11.30
2019-05-11T11:38:23.498Z,11.70
2019-05-11T11:39:23.569Z,11.10
2019-05-11T11:40:23.469Z,12.70
2019-05-11T11:41:23.467Z,11.60
2019-05-11T11:42:23.420Z,12.80
2019-05-11T11:43:23.481Z,11.10
2019-05-11T11:44:23.367Z,12.60
2019-05-11T11:45:23.390Z,10.70
2019-05-11T11:46:23.329Z,10.10
2019-05-11T11:47:23.308Z,10.40
2019-05-11T11:48:23.285Z,10.70
2019-05-11T11:49:23.309Z,11.90
2019-05-11T11:50:23.247Z,10.50
2019-05-11T11:51:23.330Z,10.70
2019-05-11T11:52:23.241Z,11.50
2019-05-11T11:53:23.189Z,11.10
2019-05-11T11:54:24.169Z,11.70
2019-05-11T11:55:23.152Z,10.90
2019-05-11T11:56:23.173Z,10.30
2019-05-11T11:57:23.095Z,11.40
2019-05-11T11:58:24.042Z,12.50
2019-05-11T11:59:23.047Z,10.50
2019-05-11T12:00:23.088Z,10.70
2019-05-11T12:01:23.022Z,11.20
2019-05-11T12:02:23.106Z,10.40
2019-05-11T12:03:23.011Z,12.10
2019-05-11T12:04:22.947Z,11.20
2019-05-11T12:05:23.028Z,10.80
2019-05-11T12:06:22.908Z,9.20
2019-05-11T12:07:22.938Z,12.60
2019-05-11T12:08:22.939Z,10.60
2019-05-11T12:09:22.847Z,11.60
2019-05-11T12:10:22.857Z,10.00
2019-05-11T12:11:22.798Z,10.50
2019-05-11T12:12:22.878Z,9.40
2019-05-11T12:13:22.758Z,8.50
2019-05-11T12:14:22.778Z,8.50
2019-05-11T12:15:22.732Z,10.20
2019-05-11T12:16:22.796Z,9.90
2019-05-11T12:17:22.689Z,10.30
2019-05-11T12:18:22.718Z,9.70
2019-05-11T12:19:22.642Z,9.30
2019-05-11T12:20:22.715Z,9.80
2019-05-11T12:21:22.596Z,9.20
2019-05-11T12:22:22.627Z,10.10
2019-05-11T12:23:22.546Z,8.60
2019-05-11T12:24:22.536Z,9.30
2019-05-11T12:25:22.551Z,10.20
2019-05-11T12:26:22.499Z,9.20
2019-05-11T12:27:22.568Z,9.20
2019-05-11T12:28:22.461Z,8.10
2019-05-11T12:29:22.434Z,8.50
2019-05-11T12:30:22.418Z,8.20
2019-05-11T12:31:22.499Z,7.40
2019-05-11T12:32:22.366Z,8.70
2019-05-11T12:33:22.407Z,8.90
2019-05-11T12:34:22.329Z,9.50
2019-05-11T12:35:22.416Z,9.90
2019-05-11T12:36:22.289Z,9.20
2019-05-11T12:37:22.428Z,10.00
2019-05-11T12:38:22.253Z,10.10
2019-05-11T12:39:22.235Z,9.80
2019-05-11T12:40:22.206Z,7.80
2019-05-11T12:41:22.256Z,9.10
2019-05-11T12:42:22.174Z,8.40
2019-05-11T12:43:22.585Z,9.80
2019-05-11T12:44:22.128Z,8.50
2019-05-11T12:45:22.095Z,10.10
2019-05-11T12:46:22.186Z,7.70
2019-05-11T12:47:24.990Z,8.90
2019-05-11T12:48:22.097Z,9.40
2019-05-11T12:49:22.017Z,9.10
2019-05-11T12:50:21.998Z,9.60
2019-05-11T12:51:22.016Z,10.60
2019-05-11T12:52:21.946Z,10.80
2019-05-11T12:53:22.036Z,7.70
2019-05-11T12:54:21.916Z,10.90
2019-05-11T12:55:21.897Z,8.60
2019-05-11T12:56:21.869Z,9.80
2019-05-11T12:57:21.956Z,10.20
2019-05-11T12:58:21.846Z,8.70
2019-05-11T12:59:21.879Z,11.40
2019-05-11T13:00:21.800Z,9.60
2019-05-11T13:01:21.786Z,10.20
2019-05-11T13:02:21.751Z,8.90
2019-05-11T13:03:21.796Z,9.90
2019-05-11T13:04:21.720Z,9.50
2019-05-11T13:05:21.704Z,10.70
2019-05-11T13:06:21.656Z,9.70
2019-05-11T13:07:21.726Z,9.90
2019-05-11T13:08:21.626Z,9.20
2019-05-11T13:09:21.646Z,9.10
2019-05-11T13:10:21.570Z,9.40
2019-05-11T13:11:21.548Z,8.90
2019-05-11T13:12:21.557Z,8.60
2019-05-11T13:13:21.507Z,10.10
2019-05-11T13:14:21.566Z,8.20
2019-05-11T13:15:21.459Z,6.90
2019-05-11T13:16:21.448Z,8.30
2019-05-11T13:17:34.202Z,8.60
2019-05-11T13:18:21.396Z,9.10
2019-05-11T13:19:21.419Z,7.80
2019-05-11T13:20:21.360Z,9.70
2019-05-11T13:21:21.348Z,10.40
2019-05-11T13:22:21.308Z,8.10
2019-05-11T13:23:21.324Z,8.90
2019-05-11T13:24:21.290Z,9.20
2019-05-11T13:25:21.347Z,9.10
2019-05-11T13:26:21.240Z,8.00
2019-05-11T13:27:21.282Z,9.00
2019-05-11T13:28:21.191Z,8.20
2019-05-11T13:29:21.278Z,8.40
2019-05-11T13:30:21.139Z,8.70
2019-05-11T13:31:21.179Z,9.60
2019-05-11T13:32:21.110Z,9.50
2019-05-11T13:33:21.207Z,10.20
2019-05-11T13:34:21.059Z,8.00
2019-05-11T13:35:21.117Z,6.30
2019-05-11T13:36:21.025Z,5.80
2019-05-11T13:37:21.010Z,8.00
2019-05-11T13:38:20.975Z,7.60
2019-05-11T13:39:21.027Z,7.60
2019-05-11T13:40:20.928Z,8.20
2019-05-11T13:41:20.983Z,7.50
2019-05-11T13:42:23.225Z,6.30
2019-05-11T13:43:20.878Z,8.00
2019-05-11T13:44:20.966Z,11.30
2019-05-11T13:45:20.827Z,7.50
2019-05-11T13:46:20.876Z,8.80
2019-05-11T13:47:20.778Z,8.20
2019-05-11T13:48:20.798Z,8.70
2019-05-11T13:49:20.745Z,9.00
2019-05-11T13:50:20.813Z,8.80
2019-05-11T13:51:20.697Z,8.60
2019-05-11T13:52:20.724Z,8.00
2019-05-11T13:53:20.657Z,6.30
2019-05-11T13:54:20.738Z,8.10
2019-05-11T13:55:20.628Z,6.50
2019-05-11T13:56:20.640Z,6.40
2019-05-11T13:57:20.576Z,7.20
2019-05-11T13:58:20.555Z,7.00
2019-05-11T13:59:20.556Z,7.70
2019-05-11T14:00:20.511Z,7.00
2019-05-11T14:01:20.586Z,8.10
2019-05-11T14:02:20.490Z,6.30
2019-05-11T14:03:20.447Z,8.60
2019-05-11T14:04:20.487Z,8.40
2019-05-11T14:05:20.407Z,7.20
2019-05-11T14:06:20.420Z,7.30
2019-05-11T14:07:20.377Z,6.60
2019-05-11T14:08:20.362Z,7.00
2019-05-11T14:09:20.332Z,8.00
2019-05-11T14:10:20.333Z,7.80
2019-05-11T14:11:20.308Z,7.10
2019-05-11T14:12:20.348Z,7.40
2019-05-11T14:13:20.247Z,7.80
2019-05-11T14:14:20.259Z,9.80
2019-05-11T14:15:20.219Z,7.60
2019-05-11T14:16:20.274Z,8.60
2019-05-11T14:17:20.177Z,6.50
2019-05-11T14:18:20.177Z,7.20
2019-05-11T14:19:20.125Z,7.30
2019-05-11T14:20:20.210Z,8.10